Observations for TORINO CASELLE, Italy (LIMF)

LIMF 201950Z 31004KT CAVOK 08/04 Q1024  
LIMF 201920Z 31003KT CAVOK 08/03 Q1024  
LIMF 201850Z 35002KT 8000 NSC 10/04 Q1024   
LIMF 201820Z 01002KT 8000 NSC 10/03 Q1024   
LIMF 201750Z VRB01KT 8000 NSC 11/04 Q1023   
LIMF 201720Z VRB02KT 8000 NSC 11/03 Q1023   
LIMF 201650Z VRB01KT 8000 NSC 12/04 Q1023   
LIMF 201620Z VRB02KT 8000 NSC 13/04 Q1023   
LIMF 201550Z VRB01KT 8000 NSC 14/04 Q1023   
LIMF 201520Z 12003KT 040V210 8000 NSC 14/04 Q1023   
LIMF 201450Z 11003KT 060V170 8000 NSC 14/04 Q1023   
LIMF 201420Z VRB02KT 8000 NSC 14/04 Q1023   
LIMF 201350Z 16003KT 100V210 8000 NSC 14/03 Q1023   
LIMF 201320Z 14003KT 090V200 8000 NSC 13/04 Q1023   
LIMF 201250Z VRB02KT 8000 NSC 13/04 Q1023   
LIMF 201220Z 14003KT 080V200 8000 NSC 12/04 Q1024   
LIMF 201150Z VRB03KT 8000 NSC 12/04 Q1024   
LIMF 201120Z VRB03KT 8000 NSC 11/03 Q1024   
LIMF 201050Z 12003KT 070V190 8000 NSC 10/03 Q1024   
LIMF 201020Z 12004KT 080V160 8000 NSC 09/03 Q1024   
LIMF 200950Z VRB02KT 7000 NSC 09/03 Q1024   
LIMF 200920Z VRB02KT 8000 NSC 08/03 Q1024   
LIMF 200850Z VRB01KT 7000 NSC 08/03 Q1024   
LIMF 200820Z VRB01KT 7000 NSC 06/03 Q1024   
LIMF 200750Z 31003KT 7000 NSC 04/01 Q1024   
LIMF 200720Z 28003KT 260V330 7000 NSC 02/00 Q1024   
LIMF 200650Z 32002KT 7000 NSC 01/M00 Q1023  
LIMF 200620Z VRB01KT 7000 NSC 02/00 Q1023   
LIMF 200550Z 00000KT 8000 NSC 02/01 Q1022   
LIMF 200520Z 09001KT 8000 NSC 01/M00 Q1022  
LIMF 200450Z VRB03KT 8000 NSC 02/M01 Q1022  
LIMF 200420Z 30005KT 8000 NSC 02/M00 Q1022  
LIMF 200350Z 30005KT 8000 NSC 03/00 Q1022   
LIMF 200320Z 31005KT 8000 NSC 03/00 Q1022   
LIMF 200250Z 30006KT 6000 NSC 03/01 Q1022   
LIMF 200220Z 30005KT CAVOK 03/01 Q1022  
LIMF 200150Z 29005KT CAVOK 02/M00 Q1022 
LIMF 200120Z 30006KT CAVOK 05/01 Q1022  
LIMF 200050Z 30006KT CAVOK 04/01 Q1022  
LIMF 200020Z 30005KT CAVOK 04/01 Q1022  
LIMF 192350Z 29005KT CAVOK 04/01 Q1022  
LIMF 192320Z 30005KT CAVOK 04/01 Q1022  
LIMF 192250Z 30005KT CAVOK 05/02 Q1022  
LIMF 192220Z 29005KT CAVOK 05/02 Q1022  
LIMF 192150Z 31005KT CAVOK 07/02 Q1022  
LIMF 192120Z 27007KT CAVOK 05/02 Q1022  
LIMF 192050Z 25004KT CAVOK 06/02 Q1022  
LIMF 192020Z VRB02KT CAVOK 07/02 Q1021  
LIMF 191950Z 31003KT 290V350 CAVOK 08/02 Q1021  
LIMF 191920Z 10003KT 060V150 CAVOK 07/02 Q1021